sensor_id;sensor_type;location;lat;lon;timestamp;P1;durP1;ratioP1;P2;durP2;ratioP2
59766;SDS011;46248;58.364;25.582;2024-01-16T00:02:11;26.75;;;11.18;;
59766;SDS011;46248;58.364;25.582;2024-01-16T00:05:35;23.20;;;9.98;;
59766;SDS011;46248;58.364;25.582;2024-01-16T00:08:59;29.40;;;10.82;;
59766;SDS011;46248;58.364;25.582;2024-01-16T00:12:22;30.27;;;11.75;;
59766;SDS011;46248;58.364;25.582;2024-01-16T00:15:45;22.52;;;9.82;;
59766;SDS011;46248;58.364;25.582;2024-01-16T00:19:10;23.77;;;9.85;;
59766;SDS011;46248;58.364;25.582;2024-01-16T00:22:33;25.90;;;10.02;;
59766;SDS011;46248;58.364;25.582;2024-01-16T00:25:58;24.73;;;9.82;;
59766;SDS011;46248;58.364;25.582;2024-01-16T00:29:20;18.55;;;9.00;;
59766;SDS011;46248;58.364;25.582;2024-01-16T00:32:44;15.80;;;8.90;;
59766;SDS011;46248;58.364;25.582;2024-01-16T00:36:07;19.55;;;7.30;;
59766;SDS011;46248;58.364;25.582;2024-01-16T00:39:30;23.33;;;9.40;;
59766;SDS011;46248;58.364;25.582;2024-01-16T00:42:55;20.88;;;8.75;;
59766;SDS011;46248;58.364;25.582;2024-01-16T00:46:18;18.45;;;7.72;;
59766;SDS011;46248;58.364;25.582;2024-01-16T00:49:41;21.90;;;9.40;;
59766;SDS011;46248;58.364;25.582;2024-01-16T00:53:04;24.80;;;9.60;;
59766;SDS011;46248;58.364;25.582;2024-01-16T00:56:27;20.10;;;8.38;;
59766;SDS011;46248;58.364;25.582;2024-01-16T00:59:53;22.27;;;9.65;;
59766;SDS011;46248;58.364;25.582;2024-01-16T01:03:17;22.90;;;9.82;;
59766;SDS011;46248;58.364;25.582;2024-01-16T01:06:40;19.02;;;9.35;;
59766;SDS011;46248;58.364;25.582;2024-01-16T01:10:02;18.27;;;7.70;;
59766;SDS011;46248;58.364;25.582;2024-01-16T01:13:27;19.95;;;8.93;;
59766;SDS011;46248;58.364;25.582;2024-01-16T01:16:51;21.48;;;8.43;;
59766;SDS011;46248;58.364;25.582;2024-01-16T01:20:14;20.58;;;9.00;;
59766;SDS011;46248;58.364;25.582;2024-01-16T01:23:37;17.50;;;8.07;;
59766;SDS011;46248;58.364;25.582;2024-01-16T01:27:00;18.25;;;7.90;;
59766;SDS011;46248;58.364;25.582;2024-01-16T01:30:23;13.52;;;7.22;;
59766;SDS011;46248;58.364;25.582;2024-01-16T01:33:48;22.50;;;7.97;;
59766;SDS011;46248;58.364;25.582;2024-01-16T01:37:11;19.77;;;7.32;;
59766;SDS011;46248;58.364;25.582;2024-01-16T01:40:35;14.68;;;7.15;;
59766;SDS011;46248;58.364;25.582;2024-01-16T01:43:58;20.52;;;8.05;;
59766;SDS011;46248;58.364;25.582;2024-01-16T01:47:21;14.90;;;7.38;;
59766;SDS011;46248;58.364;25.582;2024-01-16T01:50:45;17.00;;;7.95;;
59766;SDS011;46248;58.364;25.582;2024-01-16T01:54:08;15.02;;;7.40;;
59766;SDS011;46248;58.364;25.582;2024-01-16T01:57:32;18.95;;;7.45;;
59766;SDS011;46248;58.364;25.582;2024-01-16T02:00:55;16.98;;;7.13;;
59766;SDS011;46248;58.364;25.582;2024-01-16T02:04:19;17.13;;;7.05;;
59766;SDS011;46248;58.364;25.582;2024-01-16T02:07:44;21.35;;;7.10;;
59766;SDS011;46248;58.364;25.582;2024-01-16T02:11:08;13.50;;;7.32;;
59766;SDS011;46248;58.364;25.582;2024-01-16T02:14:32;10.43;;;5.70;;
59766;SDS011;46248;58.364;25.582;2024-01-16T02:17:54;14.25;;;7.03;;
59766;SDS011;46248;58.364;25.582;2024-01-16T02:21:21;8.35;;;4.10;;
59766;SDS011;46248;58.364;25.582;2024-01-16T02:24:46;10.85;;;4.60;;
59766;SDS011;46248;58.364;25.582;2024-01-16T02:28:10;12.77;;;5.70;;
59766;SDS011;46248;58.364;25.582;2024-01-16T02:31:33;11.80;;;5.38;;
59766;SDS011;46248;58.364;25.582;2024-01-16T02:34:57;8.45;;;4.35;;
59766;SDS011;46248;58.364;25.582;2024-01-16T02:38:19;8.82;;;5.35;;
59766;SDS011;46248;58.364;25.582;2024-01-16T02:41:44;11.82;;;4.55;;
59766;SDS011;46248;58.364;25.582;2024-01-16T02:45:07;10.13;;;5.15;;
59766;SDS011;46248;58.364;25.582;2024-01-16T02:48:31;10.82;;;5.50;;
59766;SDS011;46248;58.364;25.582;2024-01-16T02:51:54;15.13;;;4.68;;
59766;SDS011;46248;58.364;25.582;2024-01-16T02:55:16;12.02;;;6.03;;
59766;SDS011;46248;58.364;25.582;2024-01-16T02:58:40;12.77;;;5.45;;
59766;SDS011;46248;58.364;25.582;2024-01-16T03:02:03;12.90;;;5.28;;
59766;SDS011;46248;58.364;25.582;2024-01-16T03:05:26;11.52;;;5.38;;
59766;SDS011;46248;58.364;25.582;2024-01-16T03:08:49;16.15;;;5.38;;
59766;SDS011;46248;58.364;25.582;2024-01-16T03:12:12;15.10;;;6.15;;
59766;SDS011;46248;58.364;25.582;2024-01-16T03:15:36;15.15;;;5.72;;
59766;SDS011;46248;58.364;25.582;2024-01-16T03:18:59;8.20;;;4.32;;
59766;SDS011;46248;58.364;25.582;2024-01-16T03:22:22;12.30;;;4.93;;
59766;SDS011;46248;58.364;25.582;2024-01-16T03:25:45;35.90;;;10.80;;
59766;SDS011;46248;58.364;25.582;2024-01-16T03:29:08;10.02;;;5.22;;
59766;SDS011;46248;58.364;25.582;2024-01-16T03:32:33;11.00;;;4.10;;
59766;SDS011;46248;58.364;25.582;2024-01-16T03:35:56;7.10;;;3.85;;
59766;SDS011;46248;58.364;25.582;2024-01-16T03:39:19;11.25;;;4.18;;
59766;SDS011;46248;58.364;25.582;2024-01-16T03:42:43;10.48;;;4.88;;
59766;SDS011;46248;58.364;25.582;2024-01-16T03:46:06;9.48;;;4.20;;
59766;SDS011;46248;58.364;25.582;2024-01-16T03:49:30;8.93;;;3.80;;
59766;SDS011;46248;58.364;25.582;2024-01-16T03:52:53;8.80;;;4.65;;
59766;SDS011;46248;58.364;25.582;2024-01-16T03:56:16;8.88;;;5.63;;
59766;SDS011;46248;58.364;25.582;2024-01-16T03:59:39;9.20;;;4.25;;
59766;SDS011;46248;58.364;25.582;2024-01-16T04:03:03;10.77;;;5.13;;
59766;SDS011;46248;58.364;25.582;2024-01-16T04:06:27;7.35;;;3.63;;
59766;SDS011;46248;58.364;25.582;2024-01-16T04:09:52;7.10;;;3.83;;
59766;SDS011;46248;58.364;25.582;2024-01-16T04:13:15;9.52;;;3.80;;
59766;SDS011;46248;58.364;25.582;2024-01-16T04:16:38;8.77;;;4.20;;
59766;SDS011;46248;58.364;25.582;2024-01-16T04:20:02;7.30;;;4.00;;
59766;SDS011;46248;58.364;25.582;2024-01-16T04:23:29;8.02;;;4.03;;
59766;SDS011;46248;58.364;25.582;2024-01-16T04:26:52;12.18;;;5.15;;
59766;SDS011;46248;58.364;25.582;2024-01-16T04:30:16;10.25;;;3.67;;
59766;SDS011;46248;58.364;25.582;2024-01-16T04:33:41;12.40;;;4.13;;
59766;SDS011;46248;58.364;25.582;2024-01-16T04:37:04;11.25;;;4.18;;
59766;SDS011;46248;58.364;25.582;2024-01-16T04:40:28;7.78;;;3.40;;
59766;SDS011;46248;58.364;25.582;2024-01-16T04:43:51;11.20;;;4.63;;
59766;SDS011;46248;58.364;25.582;2024-01-16T04:47:15;10.65;;;4.07;;
59766;SDS011;46248;58.364;25.582;2024-01-16T04:50:40;8.43;;;5.22;;
59766;SDS011;46248;58.364;25.582;2024-01-16T04:54:03;10.13;;;4.78;;
59766;SDS011;46248;58.364;25.582;2024-01-16T04:57:28;9.05;;;4.55;;
59766;SDS011;46248;58.364;25.582;2024-01-16T05:00:50;8.05;;;3.78;;
59766;SDS011;46248;58.364;25.582;2024-01-16T05:04:14;11.73;;;5.30;;
59766;SDS011;46248;58.364;25.582;2024-01-16T05:07:36;12.32;;;4.15;;
59766;SDS011;46248;58.364;25.582;2024-01-16T05:11:01;9.35;;;4.60;;
59766;SDS011;46248;58.364;25.582;2024-01-16T05:14:25;14.13;;;5.78;;
59766;SDS011;46248;58.364;25.582;2024-01-16T05:17:48;10.38;;;4.18;;
59766;SDS011;46248;58.364;25.582;2024-01-16T05:21:11;14.20;;;5.30;;
59766;SDS011;46248;58.364;25.582;2024-01-16T05:24:34;13.73;;;6.75;;
59766;SDS011;46248;58.364;25.582;2024-01-16T05:27:56;14.00;;;5.97;;
59766;SDS011;46248;58.364;25.582;2024-01-16T05:31:21;12.23;;;5.35;;
59766;SDS011;46248;58.364;25.582;2024-01-16T05:34:44;10.30;;;4.75;;
59766;SDS011;46248;58.364;25.582;2024-01-16T05:38:07;15.98;;;6.10;;
59766;SDS011;46248;58.364;25.582;2024-01-16T05:41:33;15.30;;;5.38;;
59766;SDS011;46248;58.364;25.582;2024-01-16T05:44:57;10.02;;;5.03;;
59766;SDS011;46248;58.364;25.582;2024-01-16T05:48:21;24.65;;;8.38;;
59766;SDS011;46248;58.364;25.582;2024-01-16T05:51:44;12.93;;;5.70;;
59766;SDS011;46248;58.364;25.582;2024-01-16T05:55:07;16.75;;;6.47;;
59766;SDS011;46248;58.364;25.582;2024-01-16T05:58:31;22.35;;;4.97;;
59766;SDS011;46248;58.364;25.582;2024-01-16T06:01:59;13.35;;;5.25;;
59766;SDS011;46248;58.364;25.582;2024-01-16T06:05:24;16.30;;;4.68;;
59766;SDS011;46248;58.364;25.582;2024-01-16T06:08:47;9.20;;;3.92;;
59766;SDS011;46248;58.364;25.582;2024-01-16T06:12:10;10.63;;;4.78;;
59766;SDS011;46248;58.364;25.582;2024-01-16T06:15:32;17.85;;;5.57;;
59766;SDS011;46248;58.364;25.582;2024-01-16T06:18:55;7.25;;;4.90;;
59766;SDS011;46248;58.364;25.582;2024-01-16T06:22:20;13.82;;;5.82;;
59766;SDS011;46248;58.364;25.582;2024-01-16T06:25:43;10.13;;;4.20;;
59766;SDS011;46248;58.364;25.582;2024-01-16T06:29:05;12.10;;;4.88;;
59766;SDS011;46248;58.364;25.582;2024-01-16T06:32:43;14.73;;;4.90;;
59766;SDS011;46248;58.364;25.582;2024-01-16T06:36:07;8.57;;;4.15;;
59766;SDS011;46248;58.364;25.582;2024-01-16T06:39:32;9.68;;;4.65;;
59766;SDS011;46248;58.364;25.582;2024-01-16T06:42:55;11.63;;;4.40;;
59766;SDS011;46248;58.364;25.582;2024-01-16T06:46:17;11.68;;;4.00;;
59766;SDS011;46248;58.364;25.582;2024-01-16T06:49:40;12.95;;;5.60;;
59766;SDS011;46248;58.364;25.582;2024-01-16T06:53:03;13.02;;;3.72;;
59766;SDS011;46248;58.364;25.582;2024-01-16T06:56:27;13.15;;;5.00;;
59766;SDS011;46248;58.364;25.582;2024-01-16T06:59:50;9.43;;;4.20;;
59766;SDS011;46248;58.364;25.582;2024-01-16T07:03:13;11.02;;;4.60;;
59766;SDS011;46248;58.364;25.582;2024-01-16T07:06:37;12.55;;;4.07;;
59766;SDS011;46248;58.364;25.582;2024-01-16T07:10:01;15.35;;;6.68;;
59766;SDS011;46248;58.364;25.582;2024-01-16T07:13:25;8.82;;;4.72;;
59766;SDS011;46248;58.364;25.582;2024-01-16T07:16:48;7.72;;;4.25;;
59766;SDS011;46248;58.364;25.582;2024-01-16T07:20:11;17.40;;;5.97;;
59766;SDS011;46248;58.364;25.582;2024-01-16T07:23:34;10.15;;;4.90;;
59766;SDS011;46248;58.364;25.582;2024-01-16T07:26:57;14.57;;;5.38;;
59766;SDS011;46248;58.364;25.582;2024-01-16T07:30:22;50.90;;;16.05;;
59766;SDS011;46248;58.364;25.582;2024-01-16T07:33:45;74.65;;;25.38;;
59766;SDS011;46248;58.364;25.582;2024-01-16T07:37:08;12.15;;;6.15;;
59766;SDS011;46248;58.364;25.582;2024-01-16T07:40:31;10.60;;;3.70;;
59766;SDS011;46248;58.364;25.582;2024-01-16T07:43:53;12.15;;;5.28;;
59766;SDS011;46248;58.364;25.582;2024-01-16T07:47:18;5.80;;;3.50;;
59766;SDS011;46248;58.364;25.582;2024-01-16T07:50:41;9.55;;;5.13;;
59766;SDS011;46248;58.364;25.582;2024-01-16T07:54:05;16.83;;;4.47;;
59766;SDS011;46248;58.364;25.582;2024-01-16T07:57:29;13.48;;;5.28;;
59766;SDS011;46248;58.364;25.582;2024-01-16T08:00:52;9.45;;;4.97;;
59766;SDS011;46248;58.364;25.582;2024-01-16T08:04:16;11.18;;;4.65;;
59766;SDS011;46248;58.364;25.582;2024-01-16T08:07:42;6.38;;;3.85;;
59766;SDS011;46248;58.364;25.582;2024-01-16T08:11:04;8.50;;;5.20;;
59766;SDS011;46248;58.364;25.582;2024-01-16T08:14:27;11.23;;;5.22;;
59766;SDS011;46248;58.364;25.582;2024-01-16T08:17:50;10.13;;;5.20;;
59766;SDS011;46248;58.364;25.582;2024-01-16T08:21:15;5.85;;;2.75;;
59766;SDS011;46248;58.364;25.582;2024-01-16T08:24:38;6.18;;;3.17;;
59766;SDS011;46248;58.364;25.582;2024-01-16T08:28:01;7.32;;;3.40;;
59766;SDS011;46248;58.364;25.582;2024-01-16T08:31:24;5.72;;;3.30;;
59766;SDS011;46248;58.364;25.582;2024-01-16T08:34:48;5.38;;;2.40;;
59766;SDS011;46248;58.364;25.582;2024-01-16T08:38:12;4.15;;;2.25;;
59766;SDS011;46248;58.364;25.582;2024-01-16T08:41:35;5.78;;;3.08;;
59766;SDS011;46248;58.364;25.582;2024-01-16T08:44:58;11.40;;;3.45;;
59766;SDS011;46248;58.364;25.582;2024-01-16T08:48:22;4.50;;;2.42;;
59766;SDS011;46248;58.364;25.582;2024-01-16T08:51:45;5.90;;;2.67;;
59766;SDS011;46248;58.364;25.582;2024-01-16T08:55:09;10.15;;;4.90;;
59766;SDS011;46248;58.364;25.582;2024-01-16T08:58:32;18.13;;;9.35;;
59766;SDS011;46248;58.364;25.582;2024-01-16T09:01:56;8.55;;;2.53;;
59766;SDS011;46248;58.364;25.582;2024-01-16T09:05:19;5.93;;;2.33;;
59766;SDS011;46248;58.364;25.582;2024-01-16T09:08:46;16.00;;;7.63;;
59766;SDS011;46248;58.364;25.582;2024-01-16T09:12:10;39.92;;;16.50;;
59766;SDS011;46248;58.364;25.582;2024-01-16T09:15:33;25.38;;;12.80;;
59766;SDS011;46248;58.364;25.582;2024-01-16T09:18:56;6.13;;;4.10;;
59766;SDS011;46248;58.364;25.582;2024-01-16T09:22:19;6.50;;;3.60;;
59766;SDS011;46248;58.364;25.582;2024-01-16T09:25:42;2.22;;;1.95;;
59766;SDS011;46248;58.364;25.582;2024-01-16T09:29:09;4.90;;;2.88;;
59766;SDS011;46248;58.364;25.582;2024-01-16T09:32:32;2.75;;;1.55;;
59766;SDS011;46248;58.364;25.582;2024-01-16T09:35:56;3.53;;;1.35;;
59766;SDS011;46248;58.364;25.582;2024-01-16T09:39:20;4.97;;;2.85;;
59766;SDS011;46248;58.364;25.582;2024-01-16T09:42:43;3.78;;;1.52;;
59766;SDS011;46248;58.364;25.582;2024-01-16T09:46:07;3.08;;;2.35;;
59766;SDS011;46248;58.364;25.582;2024-01-16T09:49:31;4.60;;;2.83;;
59766;SDS011;46248;58.364;25.582;2024-01-16T09:52:54;3.85;;;2.38;;
59766;SDS011;46248;58.364;25.582;2024-01-16T09:56:21;3.90;;;2.10;;
59766;SDS011;46248;58.364;25.582;2024-01-16T09:59:45;4.88;;;2.47;;
59766;SDS011;46248;58.364;25.582;2024-01-16T10:03:11;5.03;;;3.00;;
59766;SDS011;46248;58.364;25.582;2024-01-16T10:06:35;3.42;;;2.03;;
59766;SDS011;46248;58.364;25.582;2024-01-16T10:10:01;5.97;;;2.20;;
59766;SDS011;46248;58.364;25.582;2024-01-16T10:16:55;4.75;;;2.20;;
59766;SDS011;46248;58.364;25.582;2024-01-16T10:20:31;6.78;;;1.95;;
59766;SDS011;46248;58.364;25.582;2024-01-16T10:23:55;6.20;;;1.83;;
59766;SDS011;46248;58.364;25.582;2024-01-16T10:27:24;3.53;;;2.00;;
59766;SDS011;46248;58.364;25.582;2024-01-16T10:30:53;1.52;;;1.38;;
59766;SDS011;46248;58.364;25.582;2024-01-16T10:34:25;5.43;;;1.90;;
59766;SDS011;46248;58.364;25.582;2024-01-16T10:37:50;8.80;;;2.72;;
59766;SDS011;46248;58.364;25.582;2024-01-16T10:41:15;3.83;;;1.15;;
59766;SDS011;46248;58.364;25.582;2024-01-16T10:44:41;9.18;;;2.17;;
59766;SDS011;46248;58.364;25.582;2024-01-16T10:48:15;5.63;;;1.83;;
59766;SDS011;46248;58.364;25.582;2024-01-16T10:51:38;4.80;;;2.03;;
59766;SDS011;46248;58.364;25.582;2024-01-16T10:55:06;3.88;;;1.55;;
59766;SDS011;46248;58.364;25.582;2024-01-16T10:58:30;5.18;;;2.30;;
59766;SDS011;46248;58.364;25.582;2024-01-16T11:01:55;1.77;;;0.98;;
59766;SDS011;46248;58.364;25.582;2024-01-16T11:05:20;6.18;;;2.90;;
59766;SDS011;46248;58.364;25.582;2024-01-16T11:08:47;9.98;;;1.67;;
59766;SDS011;46248;58.364;25.582;2024-01-16T11:12:12;1.88;;;1.33;;
59766;SDS011;46248;58.364;25.582;2024-01-16T11:15:37;6.95;;;1.15;;
59766;SDS011;46248;58.364;25.582;2024-01-16T11:19:02;2.28;;;1.33;;
59766;SDS011;46248;58.364;25.582;2024-01-16T11:22:48;4.60;;;2.00;;
59766;SDS011;46248;58.364;25.582;2024-01-16T11:26:26;3.55;;;2.20;;
59766;SDS011;46248;58.364;25.582;2024-01-16T11:29:55;6.53;;;3.13;;
59766;SDS011;46248;58.364;25.582;2024-01-16T11:37:05;2.97;;;1.58;;
59766;SDS011;46248;58.364;25.582;2024-01-16T11:40:32;4.53;;;2.92;;
59766;SDS011;46248;58.364;25.582;2024-01-16T11:43:54;18.77;;;6.97;;
59766;SDS011;46248;58.364;25.582;2024-01-16T11:47:19;7.18;;;3.30;;
59766;SDS011;46248;58.364;25.582;2024-01-16T11:50:42;3.92;;;1.45;;
59766;SDS011;46248;58.364;25.582;2024-01-16T11:54:06;2.38;;;0.65;;
59766;SDS011;46248;58.364;25.582;2024-01-16T11:57:41;4.00;;;1.30;;
59766;SDS011;46248;58.364;25.582;2024-01-16T12:01:17;10.30;;;3.72;;
59766;SDS011;46248;58.364;25.582;2024-01-16T12:04:43;8.15;;;2.63;;
59766;SDS011;46248;58.364;25.582;2024-01-16T12:08:20;4.10;;;1.60;;
59766;SDS011;46248;58.364;25.582;2024-01-16T12:11:44;20.67;;;5.80;;
59766;SDS011;46248;58.364;25.582;2024-01-16T12:15:20;11.70;;;4.50;;
59766;SDS011;46248;58.364;25.582;2024-01-16T12:18:43;9.38;;;3.97;;
59766;SDS011;46248;58.364;25.582;2024-01-16T12:22:12;7.43;;;2.50;;
59766;SDS011;46248;58.364;25.582;2024-01-16T12:25:37;1.60;;;1.50;;
59766;SDS011;46248;58.364;25.582;2024-01-16T12:29:20;2.63;;;2.40;;
59766;SDS011;46248;58.364;25.582;2024-01-16T12:32:43;8.98;;;4.93;;
59766;SDS011;46248;58.364;25.582;2024-01-16T12:36:15;2.38;;;1.42;;
59766;SDS011;46248;58.364;25.582;2024-01-16T12:39:39;7.72;;;3.63;;
59766;SDS011;46248;58.364;25.582;2024-01-16T12:43:02;8.95;;;4.38;;
59766;SDS011;46248;58.364;25.582;2024-01-16T12:46:26;8.70;;;4.05;;
59766;SDS011;46248;58.364;25.582;2024-01-16T12:49:49;6.80;;;3.70;;
59766;SDS011;46248;58.364;25.582;2024-01-16T12:53:13;9.63;;;4.10;;
59766;SDS011;46248;58.364;25.582;2024-01-16T12:56:39;11.70;;;5.45;;
59766;SDS011;46248;58.364;25.582;2024-01-16T13:00:01;5.72;;;3.67;;
59766;SDS011;46248;58.364;25.582;2024-01-16T13:03:43;4.47;;;2.40;;
59766;SDS011;46248;58.364;25.582;2024-01-16T13:07:06;7.75;;;3.45;;
59766;SDS011;46248;58.364;25.582;2024-01-16T13:10:29;5.00;;;2.03;;
59766;SDS011;46248;58.364;25.582;2024-01-16T13:14:01;7.22;;;3.50;;
59766;SDS011;46248;58.364;25.582;2024-01-16T13:17:25;3.67;;;1.58;;
59766;SDS011;46248;58.364;25.582;2024-01-16T13:20:47;1.60;;;1.50;;
59766;SDS011;46248;58.364;25.582;2024-01-16T13:24:11;5.10;;;2.28;;
59766;SDS011;46248;58.364;25.582;2024-01-16T13:27:34;2.15;;;1.20;;
59766;SDS011;46248;58.364;25.582;2024-01-16T13:30:58;1.90;;;1.23;;
59766;SDS011;46248;58.364;25.582;2024-01-16T13:34:21;8.52;;;3.72;;
59766;SDS011;46248;58.364;25.582;2024-01-16T13:37:46;16.50;;;6.78;;
59766;SDS011;46248;58.364;25.582;2024-01-16T13:41:11;14.05;;;5.68;;
59766;SDS011;46248;58.364;25.582;2024-01-16T13:44:33;4.80;;;3.13;;
59766;SDS011;46248;58.364;25.582;2024-01-16T13:47:58;11.30;;;5.35;;
59766;SDS011;46248;58.364;25.582;2024-01-16T13:51:22;6.25;;;2.47;;
59766;SDS011;46248;58.364;25.582;2024-01-16T13:54:44;7.28;;;2.67;;
59766;SDS011;46248;58.364;25.582;2024-01-16T13:58:07;5.78;;;2.10;;
59766;SDS011;46248;58.364;25.582;2024-01-16T14:01:31;10.68;;;3.15;;
59766;SDS011;46248;58.364;25.582;2024-01-16T14:04:55;6.50;;;2.10;;
59766;SDS011;46248;58.364;25.582;2024-01-16T14:08:18;6.88;;;3.25;;
59766;SDS011;46248;58.364;25.582;2024-01-16T14:11:42;14.90;;;4.22;;
59766;SDS011;46248;58.364;25.582;2024-01-16T14:15:05;23.70;;;9.05;;
59766;SDS011;46248;58.364;25.582;2024-01-16T14:18:36;30.02;;;12.98;;
59766;SDS011;46248;58.364;25.582;2024-01-16T14:22:01;18.73;;;9.85;;
59766;SDS011;46248;58.364;25.582;2024-01-16T14:25:24;14.57;;;7.47;;
59766;SDS011;46248;58.364;25.582;2024-01-16T14:28:48;8.27;;;5.43;;
59766;SDS011;46248;58.364;25.582;2024-01-16T14:32:10;5.95;;;2.67;;
59766;SDS011;46248;58.364;25.582;2024-01-16T14:35:33;7.00;;;3.03;;
59766;SDS011;46248;58.364;25.582;2024-01-16T14:38:58;19.25;;;7.85;;
59766;SDS011;46248;58.364;25.582;2024-01-16T14:42:21;19.60;;;7.53;;
59766;SDS011;46248;58.364;25.582;2024-01-16T14:45:44;7.75;;;4.13;;
59766;SDS011;46248;58.364;25.582;2024-01-16T14:49:07;10.73;;;6.45;;
59766;SDS011;46248;58.364;25.582;2024-01-16T14:52:30;17.77;;;7.50;;
59766;SDS011;46248;58.364;25.582;2024-01-16T14:55:55;14.43;;;8.30;;
59766;SDS011;46248;58.364;25.582;2024-01-16T14:59:18;14.85;;;7.53;;
59766;SDS011;46248;58.364;25.582;2024-01-16T15:02:41;8.90;;;5.18;;
59766;SDS011;46248;58.364;25.582;2024-01-16T15:06:04;12.90;;;7.70;;
59766;SDS011;46248;58.364;25.582;2024-01-16T15:09:27;4.60;;;3.20;;
59766;SDS011;46248;58.364;25.582;2024-01-16T15:12:51;15.00;;;5.75;;
59766;SDS011;46248;58.364;25.582;2024-01-16T15:16:14;15.90;;;5.28;;
59766;SDS011;46248;58.364;25.582;2024-01-16T15:19:39;9.18;;;4.63;;
59766;SDS011;46248;58.364;25.582;2024-01-16T15:23:02;9.15;;;4.50;;
59766;SDS011;46248;58.364;25.582;2024-01-16T15:26:26;12.70;;;5.95;;
59766;SDS011;46248;58.364;25.582;2024-01-16T15:29:51;11.60;;;5.30;;
59766;SDS011;46248;58.364;25.582;2024-01-16T15:33:16;11.18;;;5.60;;
59766;SDS011;46248;58.364;25.582;2024-01-16T15:36:38;15.00;;;6.05;;
59766;SDS011;46248;58.364;25.582;2024-01-16T15:40:02;18.38;;;7.28;;
59766;SDS011;46248;58.364;25.582;2024-01-16T15:43:27;42.70;;;18.70;;
59766;SDS011;46248;58.364;25.582;2024-01-16T15:46:55;16.40;;;8.75;;
59766;SDS011;46248;58.364;25.582;2024-01-16T15:50:18;14.17;;;6.90;;
59766;SDS011;46248;58.364;25.582;2024-01-16T15:53:42;11.05;;;5.00;;
59766;SDS011;46248;58.364;25.582;2024-01-16T15:57:05;15.20;;;7.60;;
59766;SDS011;46248;58.364;25.582;2024-01-16T16:00:28;19.65;;;8.43;;
59766;SDS011;46248;58.364;25.582;2024-01-16T16:03:53;9.40;;;5.60;;
59766;SDS011;46248;58.364;25.582;2024-01-16T16:07:16;7.75;;;4.22;;
59766;SDS011;46248;58.364;25.582;2024-01-16T16:10:42;15.15;;;7.32;;
59766;SDS011;46248;58.364;25.582;2024-01-16T16:14:05;18.85;;;7.32;;
59766;SDS011;46248;58.364;25.582;2024-01-16T16:17:29;17.80;;;7.07;;
59766;SDS011;46248;58.364;25.582;2024-01-16T16:20:54;17.73;;;7.70;;
59766;SDS011;46248;58.364;25.582;2024-01-16T16:24:18;26.48;;;8.48;;
59766;SDS011;46248;58.364;25.582;2024-01-16T16:27:43;13.73;;;7.72;;
59766;SDS011;46248;58.364;25.582;2024-01-16T16:31:10;19.35;;;11.35;;
59766;SDS011;46248;58.364;25.582;2024-01-16T16:34:36;19.83;;;10.50;;
59766;SDS011;46248;58.364;25.582;2024-01-16T16:38:00;15.27;;;6.95;;
59766;SDS011;46248;58.364;25.582;2024-01-16T16:41:23;29.00;;;12.55;;
59766;SDS011;46248;58.364;25.582;2024-01-16T16:44:48;48.03;;;18.95;;
59766;SDS011;46248;58.364;25.582;2024-01-16T16:48:11;29.92;;;13.80;;
59766;SDS011;46248;58.364;25.582;2024-01-16T16:51:35;15.45;;;8.10;;
59766;SDS011;46248;58.364;25.582;2024-01-16T16:55:05;15.63;;;9.32;;
59766;SDS011;46248;58.364;25.582;2024-01-16T16:58:27;6.93;;;3.63;;
59766;SDS011;46248;58.364;25.582;2024-01-16T17:01:51;11.25;;;6.00;;
59766;SDS011;46248;58.364;25.582;2024-01-16T17:05:15;16.38;;;7.90;;
59766;SDS011;46248;58.364;25.582;2024-01-16T17:08:40;9.00;;;5.82;;
59766;SDS011;46248;58.364;25.582;2024-01-16T17:12:06;16.23;;;8.73;;
59766;SDS011;46248;58.364;25.582;2024-01-16T17:15:30;14.65;;;6.18;;
59766;SDS011;46248;58.364;25.582;2024-01-16T17:18:53;17.15;;;6.90;;
59766;SDS011;46248;58.364;25.582;2024-01-16T17:22:17;18.23;;;9.38;;
59766;SDS011;46248;58.364;25.582;2024-01-16T17:25:40;100.53;;;31.67;;
59766;SDS011;46248;58.364;25.582;2024-01-16T17:29:05;152.23;;;46.58;;
59766;SDS011;46248;58.364;25.582;2024-01-16T17:32:27;16.48;;;9.30;;
59766;SDS011;46248;58.364;25.582;2024-01-16T17:35:51;37.80;;;12.63;;
59766;SDS011;46248;58.364;25.582;2024-01-16T17:39:23;16.27;;;7.38;;
59766;SDS011;46248;58.364;25.582;2024-01-16T17:42:49;25.00;;;9.98;;
59766;SDS011;46248;58.364;25.582;2024-01-16T17:46:13;18.63;;;9.98;;
59766;SDS011;46248;58.364;25.582;2024-01-16T17:49:36;14.98;;;8.07;;
59766;SDS011;46248;58.364;25.582;2024-01-16T17:52:59;16.25;;;8.50;;
59766;SDS011;46248;58.364;25.582;2024-01-16T17:56:26;15.20;;;9.40;;
59766;SDS011;46248;58.364;25.582;2024-01-16T17:59:49;9.63;;;5.75;;
59766;SDS011;46248;58.364;25.582;2024-01-16T18:03:14;47.22;;;18.83;;
59766;SDS011;46248;58.364;25.582;2024-01-16T18:06:55;65.68;;;33.97;;
59766;SDS011;46248;58.364;25.582;2024-01-16T18:10:19;40.60;;;21.30;;
59766;SDS011;46248;58.364;25.582;2024-01-16T18:13:42;37.15;;;16.30;;
59766;SDS011;46248;58.364;25.582;2024-01-16T18:17:05;38.97;;;15.32;;
59766;SDS011;46248;58.364;25.582;2024-01-16T18:20:31;34.40;;;15.50;;
59766;SDS011;46248;58.364;25.582;2024-01-16T18:23:55;28.58;;;12.48;;
59766;SDS011;46248;58.364;25.582;2024-01-16T18:27:18;29.13;;;10.88;;
59766;SDS011;46248;58.364;25.582;2024-01-16T18:30:42;35.72;;;12.50;;
59766;SDS011;46248;58.364;25.582;2024-01-16T18:34:06;25.10;;;11.93;;
59766;SDS011;46248;58.364;25.582;2024-01-16T18:37:32;25.13;;;12.80;;
59766;SDS011;46248;58.364;25.582;2024-01-16T18:40:56;20.58;;;8.32;;
59766;SDS011;46248;58.364;25.582;2024-01-16T18:44:20;15.65;;;7.75;;
59766;SDS011;46248;58.364;25.582;2024-01-16T18:47:43;22.58;;;9.45;;
59766;SDS011;46248;58.364;25.582;2024-01-16T18:51:09;16.98;;;8.30;;
59766;SDS011;46248;58.364;25.582;2024-01-16T18:54:34;19.77;;;9.23;;
59766;SDS011;46248;58.364;25.582;2024-01-16T18:57:57;26.38;;;11.73;;
59766;SDS011;46248;58.364;25.582;2024-01-16T19:01:22;28.48;;;13.98;;
59766;SDS011;46248;58.364;25.582;2024-01-16T19:04:49;16.13;;;7.05;;
59766;SDS011;46248;58.364;25.582;2024-01-16T19:08:12;5.75;;;4.65;;
59766;SDS011;46248;58.364;25.582;2024-01-16T19:11:40;6.82;;;4.00;;
59766;SDS011;46248;58.364;25.582;2024-01-16T19:15:09;4.80;;;3.08;;
59766;SDS011;46248;58.364;25.582;2024-01-16T19:18:39;7.40;;;5.15;;
59766;SDS011;46248;58.364;25.582;2024-01-16T19:22:03;4.20;;;3.65;;
59766;SDS011;46248;58.364;25.582;2024-01-16T19:25:30;12.45;;;5.57;;
59766;SDS011;46248;58.364;25.582;2024-01-16T19:28:54;6.20;;;3.38;;
59766;SDS011;46248;58.364;25.582;2024-01-16T19:32:17;4.60;;;3.50;;
59766;SDS011;46248;58.364;25.582;2024-01-16T19:35:40;5.47;;;3.45;;
59766;SDS011;46248;58.364;25.582;2024-01-16T19:39:04;5.00;;;2.92;;
59766;SDS011;46248;58.364;25.582;2024-01-16T19:42:35;7.75;;;3.78;;
59766;SDS011;46248;58.364;25.582;2024-01-16T19:46:01;7.05;;;3.63;;
59766;SDS011;46248;58.364;25.582;2024-01-16T19:49:24;13.70;;;5.63;;
59766;SDS011;46248;58.364;25.582;2024-01-16T19:52:48;11.02;;;5.07;;
59766;SDS011;46248;58.364;25.582;2024-01-16T19:56:12;11.90;;;4.70;;
59766;SDS011;46248;58.364;25.582;2024-01-16T19:59:38;9.32;;;4.00;;
59766;SDS011;46248;58.364;25.582;2024-01-16T20:03:02;4.82;;;2.55;;
59766;SDS011;46248;58.364;25.582;2024-01-16T20:06:28;38.53;;;16.55;;
59766;SDS011;46248;58.364;25.582;2024-01-16T20:09:52;49.13;;;25.80;;